Dalton, Massachusetts
Current Conditions -  °F | °C
As of 3:54 PM on Thursday 20 Nov 2014 (Local Time) from KPSF Reporting Station
Light Snow Light Snow  
Wind Chill: 23°   Ceiling: 3800
Heat Index: 31°   Visibility: 6mi
Dew Point: 19°   Wind: 9mph
Humidity: 61%   Direction: 270°W
Pressure: 29.76"   Gusts: NA
Location:  42.47°N, 73.17°W
Report Text: KPSF 202054Z AUTO 27008KT 6SM -SN OVC038 M01/M07 A2976 RMK AO2 SNB42 SLP090 P0000 60000 T10061072 53004
Loading
Personal Weather Stations






























Interactive Weather Map New forecast layout! Learn more

10-Day Weather Forecast

Advertisements
Track Severe Weather on mobile